Time;durP1;ratioP1;P1;durP2;ratioP2;P2;SDS_P1;SDS_P2;PMS_P1;PMS_P2;Temp;Humidity;BMP_temperature;BMP_pressure;BME280_temperature;BME280_humidity;BME280_pressure;Samples;Min_cycle;Max_cycle;Signal;HPM_P1;HPM_P2
2022/04/26 03:36:36;;;;;;;11.80;5.28;;;9.10;99.90;;;;;;5071191;28;20043;-71
2022/04/26 03:39:03;;;;;;;13.68;5.43;;;9.10;99.90;;;;;;5071068;28;20115;-70
2022/04/26 03:41:28;;;;;;;10.52;5.28;;;9.10;99.90;;;;;;5070233;28;20029;-71
2022/04/26 03:43:54;;;;;;;9.98;5.45;;;9.10;99.90;;;;;;5069875;28;20098;-72
2022/04/26 03:46:19;;;;;;;11.88;5.85;;;9.10;99.90;;;;;;5067977;28;20016;-71
2022/04/26 03:48:45;;;;;;;10.63;5.70;;;9.10;99.90;;;;;;5052800;28;20025;-71
2022/04/26 03:51:10;;;;;;;9.55;5.65;;;9.00;99.90;;;;;;5070648;28;20024;-71
2022/04/26 03:53:37;;;;;;;13.95;6.57;;;9.10;99.90;;;;;;5059476;28;20025;-72
2022/04/26 03:56:03;;;;;;;15.38;6.60;;;9.10;99.90;;;;;;5054323;28;20380;-72
2022/04/26 03:58:29;;;;;;;13.43;6.20;;;9.00;99.90;;;;;;5070927;28;20041;-72
2022/04/26 04:00:55;;;;;;;14.63;6.60;;;9.00;99.90;;;;;;5070305;28;20387;-72
2022/04/26 04:03:20;;;;;;;17.00;6.70;;;9.00;99.90;;;;;;5070625;28;20051;-71
2022/04/26 04:05:46;;;;;;;15.77;7.18;;;9.00;99.90;;;;;;5070412;28;20020;-71
2022/04/26 04:08:12;;;;;;;14.80;7.20;;;9.00;99.90;;;;;;5052484;28;20027;-71
2022/04/26 04:10:37;;;;;;;11.80;6.93;;;8.90;99.90;;;;;;5070685;28;20443;-71
2022/04/26 04:13:03;;;;;;;15.77;8.10;;;8.90;99.90;;;;;;5070404;28;20416;-71
2022/04/26 04:15:29;;;;;;;19.17;7.43;;;8.90;99.90;;;;;;5052109;28;20388;-72
2022/04/26 04:17:55;;;;;;;14.00;7.22;;;8.90;99.90;;;;;;5070609;28;20024;-71
2022/04/26 04:20:20;;;;;;;15.90;7.75;;;8.90;99.90;;;;;;5069984;28;20570;-72
2022/04/26 04:22:48;;;;;;;27.25;7.70;;;8.90;99.90;;;;;;5070251;28;20028;-72
2022/04/26 04:25:15;;;;;;;17.80;7.55;;;8.90;99.90;;;;;;5070155;28;20028;-72
2022/04/26 04:27:41;;;;;;;16.73;7.47;;;8.90;99.90;;;;;;5070410;28;20055;-72
2022/04/26 04:30:07;;;;;;;18.25;7.55;;;8.80;99.90;;;;;;5070158;28;20512;-72
2022/04/26 04:32:33;;;;;;;15.05;7.50;;;8.80;99.90;;;;;;5070073;28;20455;-71
2022/04/26 04:34:59;;;;;;;20.52;7.65;;;8.80;99.90;;;;;;5073273;28;20028;-71
2022/04/26 04:37:24;;;;;;;19.95;7.45;;;8.70;99.90;;;;;;5037991;28;20085;-73
2022/04/26 04:39:50;;;;;;;14.02;7.40;;;8.70;99.90;;;;;;5072570;28;20025;-71
2022/04/26 04:42:16;;;;;;;15.45;7.68;;;8.70;99.90;;;;;;5074422;28;20029;-71
2022/04/26 04:44:41;;;;;;;17.15;8.02;;;8.70;99.90;;;;;;5039232;28;20561;-71
2022/04/26 04:47:07;;;;;;;18.80;8.25;;;8.60;99.90;;;;;;5074306;28;20028;-72
2022/04/26 04:49:33;;;;;;;19.77;7.90;;;8.60;99.90;;;;;;5073880;28;20112;-71
2022/04/26 04:51:58;;;;;;;17.35;7.78;;;8.60;99.90;;;;;;5073910;28;20029;-72
2022/04/26 04:54:24;;;;;;;17.05;7.45;;;8.60;99.90;;;;;;5055882;28;20059;-72
2022/04/26 04:56:49;;;;;;;17.27;6.97;;;8.60;99.90;;;;;;5073672;28;20556;-72
2022/04/26 04:59:16;;;;;;;15.88;7.40;;;8.60;99.90;;;;;;5069495;28;20021;-73
2022/04/26 05:01:42;;;;;;;17.63;7.90;;;8.60;99.90;;;;;;5072205;28;20061;-73
2022/04/26 05:04:08;;;;;;;13.32;7.78;;;8.60;99.90;;;;;;5071218;28;20491;-72
2022/04/26 05:06:34;;;;;;;18.02;8.00;;;8.60;99.90;;;;;;5072327;28;20054;-73
2022/04/26 05:08:59;;;;;;;16.27;8.00;;;8.60;99.90;;;;;;5071585;28;20028;-74
2022/04/26 05:11:25;;;;;;;15.57;7.63;;;8.60;99.90;;;;;;5072064;28;20371;-70
2022/04/26 05:13:50;;;;;;;18.65;7.85;;;8.60;99.90;;;;;;5072047;28;20034;-71
2022/04/26 05:16:16;;;;;;;18.38;7.00;;;8.60;99.90;;;;;;5072117;28;20384;-71
2022/04/26 05:18:41;;;;;;;17.95;8.15;;;8.60;99.90;;;;;;5073541;28;20513;-72
2022/04/26 05:21:13;;;;;;;16.35;7.90;;;8.60;99.90;;;;;;5055500;28;20028;-71
2022/04/26 05:26:23;;;;;;;16.83;7.93;;;8.50;99.90;;;;;;5073470;28;20082;-72
2022/04/26 05:28:49;;;;;;;19.15;7.90;;;8.50;99.90;;;;;;5072439;28;20025;-72
2022/04/26 05:31:14;;;;;;;19.02;7.85;;;8.50;99.90;;;;;;5069480;28;20021;-72
2022/04/26 05:33:40;;;;;;;20.85;7.78;;;8.50;99.90;;;;;;5070345;28;20024;-72
2022/04/26 05:36:06;;;;;;;20.35;8.45;;;8.50;99.90;;;;;;5053960;28;20202;-71
2022/04/26 05:38:31;;;;;;;20.88;8.35;;;8.50;99.90;;;;;;5070234;28;20528;-71
2022/04/26 05:40:57;;;;;;;24.33;8.85;;;8.40;99.90;;;;;;5073596;28;20024;-71
2022/04/26 05:43:23;;;;;;;20.30;7.97;;;8.40;99.90;;;;;;5073893;28;20597;-70
2022/04/26 05:45:48;;;;;;;19.00;8.55;;;8.40;99.90;;;;;;5072944;28;20033;-71
2022/04/26 05:48:14;;;;;;;19.45;8.13;;;8.40;99.90;;;;;;5072839;28;20052;-72
2022/04/26 05:50:41;;;;;;;19.90;8.02;;;8.30;99.90;;;;;;5051119;28;20037;-71
2022/04/26 05:53:07;;;;;;;24.80;8.80;;;8.30;99.90;;;;;;5068491;28;20044;-71
2022/04/26 05:55:32;;;;;;;23.42;8.65;;;8.30;99.90;;;;;;5072464;28;20028;-70
2022/04/26 05:58:01;;;;;;;17.23;7.47;;;8.30;99.90;;;;;;5069729;28;20103;-71
2022/04/26 06:00:27;;;;;;;24.13;8.75;;;8.30;99.90;;;;;;5070023;28;20107;-71
2022/04/26 06:02:53;;;;;;;16.45;7.90;;;8.30;99.90;;;;;;5070444;28;20092;-72
2022/04/26 06:05:18;;;;;;;20.38;8.95;;;8.20;99.90;;;;;;5073527;28;20025;-70
2022/04/26 06:07:44;;;;;;;23.17;8.32;;;8.20;99.90;;;;;;5049241;28;20397;-70
2022/04/26 06:10:10;;;;;;;16.55;8.00;;;8.20;99.90;;;;;;5070338;28;20032;-71
2022/04/26 06:12:36;;;;;;;22.95;8.35;;;8.10;99.90;;;;;;5051596;28;20025;-71
2022/04/26 06:15:02;;;;;;;22.83;8.35;;;8.10;99.90;;;;;;5067718;28;20097;-71
2022/04/26 06:17:28;;;;;;;18.50;8.43;;;8.10;99.90;;;;;;5053123;28;20465;-71
2022/04/26 06:19:54;;;;;;;23.23;7.75;;;8.10;99.90;;;;;;5053805;28;20676;-71
2022/04/26 06:22:20;;;;;;;17.10;8.52;;;8.10;99.90;;;;;;5053659;28;20029;-71
2022/04/26 06:24:46;;;;;;;20.45;8.30;;;8.10;99.90;;;;;;5052887;28;20017;-70
2022/04/26 06:27:12;;;;;;;18.75;8.23;;;8.20;99.90;;;;;;5051024;28;20576;-71
2022/04/26 06:29:37;;;;;;;19.48;8.35;;;8.20;99.90;;;;;;5051685;28;20477;-71
2022/04/26 06:32:04;;;;;;;20.52;8.73;;;8.20;99.90;;;;;;5050652;28;20080;-72
2022/04/26 06:34:29;;;;;;;20.63;8.10;;;8.20;99.90;;;;;;5050888;28;20033;-71
2022/04/26 06:36:55;;;;;;;17.23;7.88;;;8.30;99.90;;;;;;5051366;28;20112;-72
2022/04/26 06:39:20;;;;;;;21.02;8.02;;;8.30;99.90;;;;;;5033890;28;20024;-71
2022/04/26 06:41:46;;;;;;;16.50;8.07;;;8.40;99.90;;;;;;5051799;28;20025;-72
2022/04/26 06:44:12;;;;;;;20.00;7.70;;;8.50;99.90;;;;;;5051827;28;20578;-71
2022/04/26 06:46:38;;;;;;;22.00;7.72;;;8.50;99.90;;;;;;5051955;28;20063;-71
2022/04/26 06:49:04;;;;;;;19.38;7.43;;;8.50;99.90;;;;;;5051747;28;20342;-72
2022/04/26 06:51:32;;;;;;;20.38;7.88;;;8.60;99.90;;;;;;5051312;28;20035;-72
2022/04/26 06:53:58;;;;;;;14.18;7.05;;;8.70;99.90;;;;;;5051801;28;20103;-71
2022/04/26 06:56:23;;;;;;;15.90;6.82;;;8.80;99.90;;;;;;5057973;28;20502;-71
2022/04/26 06:58:49;;;;;;;14.50;6.07;;;8.90;99.90;;;;;;5071555;28;20103;-71
2022/04/26 07:01:14;;;;;;;17.17;5.93;;;9.00;99.90;;;;;;5071517;28;20438;-71
2022/04/26 07:03:40;;;;;;;14.75;5.45;;;9.10;99.90;;;;;;5071262;28;20028;-72
2022/04/26 07:06:05;;;;;;;14.95;5.53;;;9.20;99.90;;;;;;5053390;28;20020;-71
2022/04/26 07:08:31;;;;;;;10.65;4.95;;;9.30;99.90;;;;;;5053342;28;20024;-71
2022/04/26 07:10:56;;;;;;;12.77;5.50;;;9.40;99.90;;;;;;5071586;28;20032;-72
2022/04/26 07:13:22;;;;;;;11.50;5.45;;;9.50;99.90;;;;;;5053135;28;20028;-72
2022/04/26 07:15:47;;;;;;;9.85;5.20;;;9.60;99.90;;;;;;5071202;28;20021;-72
2022/04/26 07:18:13;;;;;;;15.98;5.75;;;9.70;99.90;;;;;;5070950;28;20060;-72
2022/04/26 07:20:40;;;;;;;13.95;5.65;;;9.80;99.90;;;;;;5070740;28;20513;-71
2022/04/26 07:23:07;;;;;;;14.20;5.45;;;9.90;99.90;;;;;;5071040;28;20025;-71
2022/04/26 07:25:33;;;;;;;13.07;5.65;;;10.00;99.90;;;;;;5037221;28;20195;-71
2022/04/26 07:27:59;;;;;;;14.23;6.07;;;10.10;99.90;;;;;;5052938;28;20120;-72
2022/04/26 07:30:32;;;;;;;14.13;5.20;;;10.20;99.90;;;;;;5071335;28;20345;-70
2022/04/26 07:35:42;;;;;;;15.70;6.60;;;10.30;99.90;;;;;;5055987;28;20415;-71
2022/04/26 07:38:08;;;;;;;17.00;6.10;;;10.40;99.90;;;;;;5052692;28;20021;-71
2022/04/26 07:40:33;;;;;;;15.27;5.20;;;10.50;99.90;;;;;;5071126;28;20020;-71
2022/04/26 07:43:00;;;;;;;16.25;5.78;;;10.50;99.90;;;;;;5070949;28;20338;-72
2022/04/26 07:45:25;;;;;;;11.90;5.05;;;10.60;99.90;;;;;;5070515;28;20025;-71
2022/04/26 07:47:51;;;;;;;16.27;5.55;;;10.60;99.90;;;;;;5070371;28;20039;-72
2022/04/26 07:50:18;;;;;;;13.27;5.30;;;10.70;99.90;;;;;;5070830;28;20551;-71
2022/04/26 07:52:44;;;;;;;14.60;5.20;;;10.80;99.90;;;;;;5071016;28;20372;-71
2022/04/26 07:55:10;;;;;;;21.42;5.45;;;10.90;99.90;;;;;;5070559;28;20438;-71
2022/04/26 07:57:37;;;;;;;12.70;5.38;;;11.10;99.90;;;;;;5054226;28;20029;-71
2022/04/26 08:00:03;;;;;;;15.25;5.03;;;11.20;99.90;;;;;;5050470;28;20029;-71
2022/04/26 08:02:28;;;;;;;11.13;4.70;;;11.30;99.90;;;;;;5050300;28;20041;-71
2022/04/26 08:05:00;;;;;;;17.20;5.57;;;11.30;99.90;;;;;;5032692;28;20029;-71
2022/04/26 08:07:25;;;;;;;11.27;4.93;;;11.40;99.90;;;;;;5050688;28;20028;-71
2022/04/26 08:09:51;;;;;;;16.38;5.00;;;11.50;99.90;;;;;;5049711;28;20029;-71
2022/04/26 08:12:17;;;;;;;6.25;4.32;;;11.60;99.90;;;;;;5032422;28;20366;-70
2022/04/26 08:14:42;;;;;;;10.45;4.65;;;11.70;99.90;;;;;;5050123;28;20477;-71
2022/04/26 08:17:08;;;;;;;13.68;4.88;;;11.80;99.90;;;;;;5050007;28;20025;-72
2022/04/26 08:19:33;;;;;;;10.10;4.57;;;11.80;99.90;;;;;;5049959;28;20535;-71
2022/04/26 08:21:59;;;;;;;14.43;4.70;;;11.90;99.90;;;;;;5050433;28;20581;-71
2022/04/26 08:27:30;;;;;;;10.32;4.20;;;12.10;99.90;;;;;;5050225;28;20454;-72
2022/04/26 08:29:57;;;;;;;11.52;4.57;;;12.20;99.90;;;;;;5050054;28;20045;-71
2022/04/26 08:32:26;;;;;;;10.27;4.55;;;12.30;99.90;;;;;;5050269;28;20029;-72
2022/04/26 08:34:53;;;;;;;12.80;4.43;;;12.50;99.90;;;;;;5049891;28;20021;-72
2022/04/26 08:37:19;;;;;;;13.57;4.65;;;12.50;99.90;;;;;;5050143;28;20083;-71
2022/04/26 08:39:44;;;;;;;10.75;4.40;;;12.60;99.90;;;;;;5050025;28;20520;-70
2022/04/26 08:42:10;;;;;;;10.88;4.22;;;12.70;99.90;;;;;;5050413;28;20100;-72
2022/04/26 08:44:35;;;;;;;10.35;4.50;;;12.80;99.90;;;;;;5049791;28;20500;-71
2022/04/26 08:52:49;;;;;;;10.15;4.40;;;12.90;99.90;;;;;;5050425;28;20526;-72
2022/04/26 08:55:15;;;;;;;9.80;4.10;;;13.00;99.90;;;;;;5049758;28;20489;-72
2022/04/26 08:57:41;;;;;;;9.75;4.03;;;13.00;99.90;;;;;;5048978;28;20033;-72
2022/04/26 09:00:11;;;;;;;8.68;4.07;;;12.80;99.90;;;;;;5069855;28;20020;-72
2022/04/26 09:02:37;;;;;;;10.10;4.00;;;12.70;99.90;;;;;;5069858;28;20431;-74
2022/04/26 09:05:13;;;;;;;9.45;4.13;;;12.70;99.90;;;;;;5069992;28;20107;-72
2022/04/26 09:07:40;;;;;;;10.65;4.30;;;12.90;99.90;;;;;;5069773;28;20454;-72
2022/04/26 09:10:06;;;;;;;7.28;4.07;;;13.00;99.90;;;;;;5069700;28;20025;-72
2022/04/26 09:12:52;;;;;;;10.13;4.45;;;13.20;99.90;;;;;;5069758;28;20355;-72
2022/04/26 09:15:18;;;;;;;9.55;3.58;;;13.40;99.90;;;;;;5069331;28;20043;-73
2022/04/26 09:17:44;;;;;;;9.45;3.95;;;13.70;99.40;;;;;;5051459;28;20036;-72
2022/04/26 09:20:10;;;;;;;11.05;4.00;;;13.80;98.20;;;;;;5071048;28;20060;-72
2022/04/26 09:22:38;;;;;;;7.32;3.30;;;13.90;96.70;;;;;;5055738;28;20024;-72
2022/04/26 09:25:08;;;;;;;9.80;3.67;;;14.00;95.80;;;;;;5073399;28;20020;-72
2022/04/26 09:27:38;;;;;;;8.23;3.55;;;14.20;94.90;;;;;;5073346;28;20017;-73
2022/04/26 09:30:11;;;;;;;9.43;3.97;;;14.30;93.00;;;;;;5073036;28;20028;-72
2022/04/26 09:32:49;;;;;;;10.18;4.50;;;14.30;93.20;;;;;;5073702;28;20025;-70
2022/04/26 09:35:23;;;;;;;9.95;4.35;;;14.10;96.90;;;;;;5073062;28;20020;-70
2022/04/26 09:37:49;;;;;;;8.55;4.40;;;13.80;98.50;;;;;;5073124;28;20024;-71
2022/04/26 09:40:14;;;;;;;12.30;4.47;;;13.50;99.70;;;;;;5072903;28;20035;-71
2022/04/26 09:42:40;;;;;;;8.43;4.63;;;13.30;99.90;;;;;;5073006;28;20095;-70
2022/04/26 09:45:08;;;;;;;10.77;4.75;;;13.20;99.90;;;;;;5073040;28;20023;-71
2022/04/26 09:47:38;;;;;;;9.98;4.70;;;13.00;99.90;;;;;;5073611;28;20035;-70
2022/04/26 09:50:12;;;;;;;9.88;4.63;;;12.90;99.90;;;;;;5073004;28;20111;-70
2022/04/26 09:52:38;;;;;;;10.40;4.97;;;12.70;99.90;;;;;;5054929;28;20411;-71
2022/04/26 09:55:06;;;;;;;14.38;5.32;;;12.60;99.90;;;;;;5054830;28;20025;-71
2022/04/26 09:57:33;;;;;;;12.43;5.40;;;12.60;99.90;;;;;;5039226;28;20033;-72
2022/04/26 10:00:00;;;;;;;9.75;5.07;;;12.60;99.90;;;;;;5052476;28;20538;-71
2022/04/26 10:02:31;;;;;;;12.80;4.78;;;12.60;99.90;;;;;;5052838;28;20032;-71
2022/04/26 10:05:05;;;;;;;13.48;5.20;;;12.60;99.90;;;;;;5052488;28;20116;-71
2022/04/26 10:07:44;;;;;;;11.18;4.70;;;12.60;99.90;;;;;;5052383;28;20070;-71
2022/04/26 10:10:09;;;;;;;12.80;5.20;;;12.60;99.90;;;;;;5052447;28;20029;-71
2022/04/26 10:12:36;;;;;;;14.45;5.10;;;12.60;99.90;;;;;;5052653;28;20025;-71
2022/04/26 10:15:03;;;;;;;10.23;4.38;;;12.60;99.90;;;;;;5052371;28;20025;-71
2022/04/26 10:17:32;;;;;;;12.52;4.97;;;12.70;99.90;;;;;;5052267;28;20036;-71
2022/04/26 10:19:59;;;;;;;11.63;4.65;;;13.00;99.90;;;;;;5052043;28;20072;-71
2022/04/26 10:22:53;;;;;;;7.43;3.83;;;13.10;99.90;;;;;;5052492;28;20066;-71
2022/04/26 10:25:21;;;;;;;7.18;4.00;;;13.30;99.90;;;;;;5052259;28;20442;-72
2022/04/26 10:28:23;;;;;;;11.30;4.38;;;13.40;99.90;;;;;;5052205;28;20031;-72
2022/04/26 10:30:54;;;;;;;7.93;4.38;;;13.70;99.90;;;;;;5052297;28;20364;-72
2022/04/26 10:33:43;;;;;;;9.82;4.10;;;13.80;99.90;;;;;;5051706;28;20029;-72
2022/04/26 10:36:21;;;;;;;14.43;4.20;;;13.90;99.90;;;;;;5052013;28;20040;-72
2022/04/26 10:39:05;;;;;;;9.40;4.22;;;13.90;98.50;;;;;;5051862;28;20051;-72
2022/04/26 10:41:36;;;;;;;9.38;4.10;;;13.80;99.10;;;;;;5051836;28;20044;-71
2022/04/26 10:44:14;;;;;;;10.43;3.50;;;13.90;98.20;;;;;;5033907;28;20027;-71
2022/04/26 10:46:40;;;;;;;8.48;3.58;;;14.00;94.60;;;;;;5052207;28;20451;-72
2022/04/26 10:49:23;;;;;;;9.95;3.92;;;13.90;94.30;;;;;;5051815;28;20492;-72
2022/04/26 10:51:55;;;;;;;9.27;4.10;;;13.70;94.20;;;;;;5052064;28;20031;-72
2022/04/26 10:54:45;;;;;;;11.40;4.65;;;13.70;96.50;;;;;;5033898;28;20404;-72
2022/04/26 10:57:22;;;;;;;7.40;3.95;;;13.90;98.00;;;;;;5046777;28;20029;-70
2022/04/26 10:59:56;;;;;;;11.02;4.03;;;13.90;98.50;;;;;;5071566;28;20039;-71
2022/04/26 11:02:23;;;;;;;8.97;4.17;;;13.90;96.60;;;;;;5071791;28;20025;-71
2022/04/26 11:05:10;;;;;;;9.25;3.90;;;13.70;97.50;;;;;;5071557;28;20800;-71
2022/04/26 11:07:38;;;;;;;9.75;4.35;;;13.80;98.70;;;;;;5053368;28;20029;-72
2022/04/26 11:10:04;;;;;;;8.20;3.60;;;14.00;99.30;;;;;;5071523;28;20048;-72
2022/04/26 11:12:35;;;;;;;8.38;4.25;;;14.10;97.60;;;;;;5071536;28;20038;-71
2022/04/26 11:15:13;;;;;;;11.32;4.10;;;13.90;98.00;;;;;;5053512;28;20063;-72
2022/04/26 11:17:39;;;;;;;7.22;4.05;;;13.80;98.40;;;;;;5053306;28;20107;-72
2022/04/26 11:20:12;;;;;;;7.90;4.05;;;13.90;99.20;;;;;;5071372;28;20056;-73
2022/04/26 11:22:46;;;;;;;10.07;4.13;;;14.20;99.50;;;;;;5053744;28;20036;-73
2022/04/26 11:28:10;;;;;;;9.15;3.90;;;14.20;95.70;;;;;;5071673;28;20119;-72
2022/04/26 11:30:43;;;;;;;7.97;4.00;;;14.20;96.50;;;;;;5071376;28;20525;-74
2022/04/26 11:33:22;;;;;;;10.00;3.95;;;14.40;96.60;;;;;;5073544;28;20020;-72
2022/04/26 11:35:59;;;;;;;9.00;4.00;;;14.50;95.70;;;;;;5070192;28;20028;-73
2022/04/26 11:38:25;;;;;;;8.43;3.80;;;14.50;94.60;;;;;;5087702;28;20028;-73
2022/04/26 11:40:52;;;;;;;9.52;3.60;;;14.50;94.10;;;;;;5088145;28;20367;-72
2022/04/26 11:43:22;;;;;;;9.50;3.20;;;14.60;94.10;;;;;;5061605;28;20070;-71
2022/04/26 11:45:50;;;;;;;6.88;3.25;;;14.70;93.00;;;;;;5071153;28;20093;-71
2022/04/26 11:48:17;;;;;;;6.65;2.92;;;14.80;92.60;;;;;;5071355;28;20115;-71
2022/04/26 11:50:44;;;;;;;6.00;2.78;;;14.80;90.30;;;;;;5070762;28;20103;-72
2022/04/26 11:53:13;;;;;;;7.40;2.55;;;14.90;90.00;;;;;;5052417;28;20052;-71
2022/04/26 11:55:44;;;;;;;9.27;2.75;;;15.00;80.10;;;;;;5070363;28;20024;-73
2022/04/26 11:58:15;;;;;;;4.00;2.67;;;14.70;78.60;;;;;;5051088;28;20032;-73
2022/04/26 12:00:53;;;;;;;5.65;2.63;;;14.70;81.50;;;;;;5050673;28;20028;-72
2022/04/26 12:03:22;;;;;;;8.07;2.90;;;14.70;81.70;;;;;;5051180;28;20028;-73
2022/04/26 12:05:53;;;;;;;5.07;2.97;;;14.80;79.80;;;;;;5051475;28;20021;-72
2022/04/26 12:08:20;;;;;;;8.10;2.67;;;14.70;80.40;;;;;;5051399;28;20528;-73
2022/04/26 12:10:47;;;;;;;10.43;2.55;;;14.70;81.30;;;;;;5051574;28;20104;-72
2022/04/26 12:13:14;;;;;;;7.03;3.10;;;14.70;79.70;;;;;;5051352;28;20078;-73
2022/04/26 12:15:40;;;;;;;5.03;2.50;;;14.70;80.30;;;;;;5050346;28;20029;-73
2022/04/26 12:18:09;;;;;;;5.32;2.70;;;14.60;79.30;;;;;;5053447;28;20025;-72
2022/04/26 12:20:57;;;;;;;3.85;2.25;;;14.70;77.50;;;;;;5055929;28;20083;-72
2022/04/26 12:23:24;;;;;;;5.68;2.30;;;14.70;74.70;;;;;;5058729;28;20024;-73
2022/04/26 12:26:09;;;;;;;6.68;2.35;;;14.70;75.10;;;;;;5061550;28;20052;-72
2022/04/26 12:28:49;;;;;;;4.53;2.30;;;14.90;74.70;;;;;;5061281;28;20029;-72
2022/04/26 12:31:26;;;;;;;3.88;2.30;;;14.90;74.80;;;;;;5061547;28;20480;-73
2022/04/26 12:34:12;;;;;;;3.15;2.20;;;15.00;75.00;;;;;;5067093;28;20020;-72
2022/04/26 12:37:06;;;;;;;5.68;1.98;;;14.80;72.50;;;;;;5048417;28;20029;-73
2022/04/26 12:39:45;;;;;;;5.35;2.75;;;14.70;73.20;;;;;;5066302;28;20032;-72
2022/04/26 12:42:12;;;;;;;8.00;2.70;;;14.70;75.30;;;;;;5070227;28;20107;-73
2022/04/26 12:44:50;;;;;;;4.85;2.78;;;14.80;77.80;;;;;;5068448;28;20021;-73
2022/04/26 12:52:45;;;;;;;5.32;2.70;;;15.00;77.20;;;;;;5057881;28;20553;-72
2022/04/26 12:55:11;;;;;;;4.68;2.80;;;14.90;77.40;;;;;;5057517;28;20021;-73
2022/04/26 12:58:07;;;;;;;8.68;2.55;;;14.70;77.50;;;;;;5055836;28;20550;-72
2022/04/26 13:00:39;;;;;;;5.30;2.95;;;14.60;79.90;;;;;;5043719;28;20537;-73
2022/04/26 13:03:07;;;;;;;4.70;2.75;;;14.50;81.50;;;;;;5055413;28;20029;-72
2022/04/26 13:05:54;;;;;;;6.95;2.88;;;14.60;81.20;;;;;;5054804;28;20109;-73
2022/04/26 13:08:21;;;;;;;5.55;2.45;;;14.70;82.20;;;;;;5051937;28;20028;-72
2022/04/26 13:10:48;;;;;;;6.80;2.83;;;14.70;80.10;;;;;;5056938;28;20623;-72
2022/04/26 13:13:15;;;;;;;6.13;3.03;;;14.50;80.80;;;;;;5055041;28;20013;-72
2022/04/26 13:15:42;;;;;;;7.15;2.90;;;14.40;81.70;;;;;;5036634;28;20017;-73
2022/04/26 13:18:10;;;;;;;5.75;3.22;;;14.40;84.80;;;;;;5053146;28;20034;-72
2022/04/26 13:20:35;;;;;;;8.23;2.90;;;14.50;86.50;;;;;;5053590;28;20134;-72
2022/04/26 13:23:01;;;;;;;7.57;2.95;;;14.70;85.00;;;;;;5053479;28;20048;-71
2022/04/26 13:25:27;;;;;;;7.82;2.95;;;14.70;82.90;;;;;;5054770;28;20024;-71
2022/04/26 13:27:53;;;;;;;4.55;2.38;;;14.70;82.50;;;;;;5057817;28;20021;-73
2022/04/26 13:30:20;;;;;;;5.05;2.67;;;14.70;81.30;;;;;;5033965;28;20108;-72
2022/04/26 13:32:46;;;;;;;5.13;2.50;;;14.70;81.40;;;;;;5058982;28;20031;-73
2022/04/26 13:35:12;;;;;;;6.55;2.90;;;14.80;81.80;;;;;;5072074;28;20543;-70
2022/04/26 13:37:38;;;;;;;7.15;2.90;;;14.70;83.00;;;;;;5072056;28;20104;-71
2022/04/26 13:40:06;;;;;;;4.10;2.65;;;14.80;83.40;;;;;;5071606;28;20013;-71
2022/04/26 13:42:31;;;;;;;8.82;2.60;;;14.90;83.40;;;;;;5073053;28;20048;-70
2022/04/26 13:44:58;;;;;;;6.40;2.97;;;14.90;82.50;;;;;;5072151;28;20032;-71
2022/04/26 13:47:25;;;;;;;7.20;2.92;;;14.90;80.20;;;;;;5071770;28;20046;-71
2022/04/26 13:49:52;;;;;;;5.55;2.90;;;14.60;80.70;;;;;;5071546;28;20124;-71
2022/04/26 13:52:20;;;;;;;4.95;2.80;;;14.50;80.40;;;;;;5071853;28;20024;-70
2022/04/26 13:54:46;;;;;;;6.72;2.83;;;14.40;79.00;;;;;;5072712;28;20111;-71
2022/04/26 13:57:12;;;;;;;8.27;2.83;;;14.20;78.80;;;;;;5072908;28;20024;-71
2022/04/26 13:59:38;;;;;;;7.85;3.05;;;14.10;81.60;;;;;;5072846;28;20033;-70
2022/04/26 14:02:05;;;;;;;9.05;3.60;;;14.10;84.30;;;;;;5073012;28;20353;-71
2022/04/26 14:04:31;;;;;;;6.25;3.30;;;14.30;83.30;;;;;;5072980;28;20028;-71
2022/04/26 14:06:56;;;;;;;6.07;2.83;;;14.20;81.50;;;;;;5071520;28;20035;-71
2022/04/26 14:09:22;;;;;;;8.38;2.60;;;14.20;82.80;;;;;;5072632;28;20035;-70
2022/04/26 14:11:49;;;;;;;8.68;3.10;;;14.20;83.00;;;;;;5072806;28;20249;-70
2022/04/26 14:22:32;;;;;;;8.15;2.83;;;14.40;84.00;;;;;;5072674;28;20039;-70
2022/04/26 14:24:59;;;;;;;5.60;2.97;;;14.30;82.10;;;;;;5072244;28;20024;-71
2022/04/26 14:27:26;;;;;;;7.20;2.83;;;14.20;81.70;;;;;;5072849;28;20032;-72
2022/04/26 14:29:51;;;;;;;11.50;3.65;;;14.10;82.60;;;;;;5054050;28;20283;-70
2022/04/26 14:32:17;;;;;;;6.50;2.65;;;14.00;82.70;;;;;;5072100;28;20112;-71
2022/04/26 14:34:43;;;;;;;6.72;2.70;;;14.20;83.60;;;;;;5072006;28;20028;-70
2022/04/26 14:37:09;;;;;;;5.20;2.70;;;14.30;81.10;;;;;;5072344;28;20028;-70
2022/04/26 14:39:36;;;;;;;5.72;2.60;;;14.40;79.70;;;;;;5072387;28;20028;-72
2022/04/26 14:42:03;;;;;;;6.85;2.90;;;14.20;80.50;;;;;;5072222;28;20028;-72
2022/04/26 14:44:28;;;;;;;5.57;3.22;;;14.10;80.40;;;;;;5072371;28;20028;-73
2022/04/26 14:46:54;;;;;;;7.28;3.30;;;14.00;83.10;;;;;;5072908;28;20036;-72
2022/04/26 14:49:19;;;;;;;9.43;3.30;;;13.90;84.70;;;;;;5072690;28;20541;-70
2022/04/26 14:51:46;;;;;;;5.40;2.70;;;13.90;83.70;;;;;;5070678;28;20012;-73
2022/04/26 14:54:12;;;;;;;7.68;3.13;;;13.80;84.10;;;;;;5049919;28;20018;-72
2022/04/26 14:56:37;;;;;;;7.03;3.38;;;13.90;85.10;;;;;;5070091;28;20048;-72
2022/04/26 14:59:03;;;;;;;5.60;3.15;;;13.90;84.60;;;;;;5070391;28;20020;-72
2022/04/26 15:01:30;;;;;;;5.70;2.92;;;14.00;83.70;;;;;;5069471;28;20412;-71
2022/04/26 15:03:58;;;;;;;5.72;3.15;;;13.90;83.90;;;;;;5065141;28;20465;-72
2022/04/26 15:06:24;;;;;;;7.38;3.40;;;13.90;85.50;;;;;;5069490;28;20052;-72
2022/04/26 15:11:34;;;;;;;7.82;3.03;;;13.90;86.30;;;;;;5059817;28;20438;-72
2022/04/26 15:16:47;;;;;;;6.18;3.35;;;13.80;87.30;;;;;;5060459;28;20036;-71
2022/04/26 15:19:14;;;;;;;6.70;2.85;;;13.70;88.80;;;;;;5063113;28;20052;-70
2022/04/26 15:21:42;;;;;;;7.78;3.13;;;13.70;88.40;;;;;;5052215;28;20033;-73
2022/04/26 15:24:08;;;;;;;5.97;3.20;;;13.70;89.00;;;;;;5066580;28;20031;-71
2022/04/26 15:26:34;;;;;;;5.53;2.78;;;13.70;89.30;;;;;;5063730;28;20020;-71
2022/04/26 15:29:00;;;;;;;7.13;3.50;;;13.90;88.20;;;;;;5033070;28;20737;-70
2022/04/26 15:31:26;;;;;;;5.38;3.00;;;13.90;86.90;;;;;;5053205;28;20063;-70
2022/04/26 15:33:52;;;;;;;6.63;3.00;;;13.90;88.20;;;;;;5050804;28;20021;-70
2022/04/26 15:36:19;;;;;;;7.88;2.85;;;13.90;87.10;;;;;;5066740;28;20039;-70
2022/04/26 15:38:45;;;;;;;6.63;3.17;;;13.80;88.00;;;;;;5067825;28;20040;-70
2022/04/26 15:41:12;;;;;;;7.47;3.30;;;13.80;89.00;;;;;;5071548;28;20107;-70
2022/04/26 15:43:38;;;;;;;7.15;3.35;;;13.80;88.30;;;;;;5070261;28;20024;-71
2022/04/26 15:46:06;;;;;;;5.32;3.80;;;13.90;87.80;;;;;;5070734;28;20392;-71
2022/04/26 15:48:34;;;;;;;4.82;3.17;;;13.90;87.50;;;;;;5069533;28;20726;-71
2022/04/26 15:51:00;;;;;;;4.97;3.00;;;13.70;87.80;;;;;;5050504;28;20016;-68
2022/04/26 15:53:25;;;;;;;9.70;3.08;;;13.50;89.60;;;;;;5068134;28;20024;-71
2022/04/26 15:55:51;;;;;;;5.70;2.80;;;13.60;90.10;;;;;;5067843;28;20024;-71
2022/04/26 15:58:19;;;;;;;5.72;3.00;;;13.70;90.10;;;;;;5068694;28;20560;-69
2022/04/26 16:00:45;;;;;;;7.82;2.90;;;13.70;89.80;;;;;;5068088;28;20040;-69
2022/04/26 16:03:10;;;;;;;7.60;3.03;;;13.60;90.30;;;;;;5060012;28;20016;-72
2022/04/26 16:05:37;;;;;;;7.63;3.10;;;13.60;90.50;;;;;;5067412;28;20020;-69
2022/04/26 16:08:03;;;;;;;7.38;3.30;;;13.60;90.40;;;;;;5070465;28;20024;-70
2022/04/26 16:21:26;;;;;;;6.18;3.10;;;13.20;93.00;;;;;;5066198;28;20066;-69
2022/04/26 16:23:54;;;;;;;12.63;3.65;;;13.10;93.40;;;;;;5067767;28;20021;-70
2022/04/26 16:26:22;;;;;;;7.80;2.83;;;13.10;93.40;;;;;;5070134;28;20531;-69
2022/04/26 16:28:48;;;;;;;6.35;2.85;;;13.10;93.80;;;;;;5067161;28;20035;-70
2022/04/26 16:31:15;;;;;;;9.27;2.85;;;13.20;92.60;;;;;;5064760;28;20025;-70
2022/04/26 16:33:41;;;;;;;9.25;3.22;;;13.00;92.30;;;;;;5067791;28;20048;-71
2022/04/26 16:36:07;;;;;;;6.88;2.70;;;12.90;93.20;;;;;;5068628;28;20051;-70
2022/04/26 16:38:33;;;;;;;5.65;2.70;;;12.90;93.30;;;;;;5066317;28;20057;-69
2022/04/26 16:41:01;;;;;;;8.23;2.78;;;12.90;93.20;;;;;;5068690;28;20044;-70
2022/04/26 16:43:27;;;;;;;8.07;3.10;;;13.00;93.40;;;;;;5063666;28;20024;-70
2022/04/26 16:45:53;;;;;;;7.93;2.65;;;13.20;93.50;;;;;;5068185;28;20059;-69
2022/04/26 16:48:18;;;;;;;6.95;3.20;;;13.10;92.80;;;;;;5065143;28;20052;-70
2022/04/26 16:50:44;;;;;;;9.00;3.15;;;13.10;93.20;;;;;;5065027;28;20033;-72
2022/04/26 16:53:10;;;;;;;6.25;2.92;;;13.00;94.00;;;;;;5063719;28;20078;-70
2022/04/26 16:55:35;;;;;;;8.57;2.60;;;13.00;93.80;;;;;;5045926;28;20728;-70
2022/04/26 16:58:02;;;;;;;9.50;3.22;;;12.90;94.80;;;;;;5065059;28;20396;-70
2022/04/26 17:00:28;;;;;;;6.63;3.10;;;12.80;95.30;;;;;;5053794;28;20021;-70
2022/04/26 17:02:55;;;;;;;8.05;3.10;;;12.80;94.70;;;;;;5066442;28;20013;-69
2022/04/26 17:05:22;;;;;;;9.98;3.38;;;12.70;95.20;;;;;;5053590;28;20390;-71
2022/04/26 17:07:49;;;;;;;7.53;3.42;;;12.70;96.20;;;;;;5032981;28;20025;-69
2022/04/26 17:10:16;;;;;;;9.00;3.33;;;12.70;96.90;;;;;;5055489;28;20511;-69
2022/04/26 17:12:41;;;;;;;9.00;3.15;;;12.60;97.30;;;;;;5055138;28;20025;-70